sensor_id;sensor_type;location;lat;lon;timestamp;P1;durP1;ratioP1;P2;durP2;ratioP2
11342;SDS011;5726;42.160;24.746;2023-02-28T00:00:15;13.00;;;8.00;;
11342;SDS011;5726;42.160;24.746;2023-02-28T00:02:41;15.33;;;7.67;;
11342;SDS011;5726;42.160;24.746;2023-02-28T00:05:09;14.47;;;8.00;;
11342;SDS011;5726;42.160;24.746;2023-02-28T00:07:36;16.67;;;7.23;;
11342;SDS011;5726;42.160;24.746;2023-02-28T00:10:01;13.43;;;7.60;;
11342;SDS011;5726;42.160;24.746;2023-02-28T00:12:27;13.07;;;7.13;;
11342;SDS011;5726;42.160;24.746;2023-02-28T00:14:53;17.87;;;7.90;;
11342;SDS011;5726;42.160;24.746;2023-02-28T00:17:18;11.50;;;6.97;;
11342;SDS011;5726;42.160;24.746;2023-02-28T00:19:48;12.97;;;7.40;;
11342;SDS011;5726;42.160;24.746;2023-02-28T00:22:18;12.17;;;7.10;;
11342;SDS011;5726;42.160;24.746;2023-02-28T00:24:45;18.80;;;7.87;;
11342;SDS011;5726;42.160;24.746;2023-02-28T00:27:12;19.90;;;9.27;;
11342;SDS011;5726;42.160;24.746;2023-02-28T00:29:38;22.03;;;12.00;;
11342;SDS011;5726;42.160;24.746;2023-02-28T00:32:04;13.13;;;8.80;;
11342;SDS011;5726;42.160;24.746;2023-02-28T00:34:31;13.60;;;7.90;;
11342;SDS011;5726;42.160;24.746;2023-02-28T00:37:02;11.17;;;6.87;;
11342;SDS011;5726;42.160;24.746;2023-02-28T00:39:33;14.00;;;8.20;;
11342;SDS011;5726;42.160;24.746;2023-02-28T00:41:59;12.50;;;7.17;;
11342;SDS011;5726;42.160;24.746;2023-02-28T00:44:25;10.77;;;6.93;;
11342;SDS011;5726;42.160;24.746;2023-02-28T00:46:50;11.10;;;6.83;;
11342;SDS011;5726;42.160;24.746;2023-02-28T00:49:16;13.60;;;7.30;;
11342;SDS011;5726;42.160;24.746;2023-02-28T00:51:42;13.87;;;7.70;;
11342;SDS011;5726;42.160;24.746;2023-02-28T00:54:08;14.37;;;7.37;;
11342;SDS011;5726;42.160;24.746;2023-02-28T00:56:33;13.70;;;7.20;;
11342;SDS011;5726;42.160;24.746;2023-02-28T00:58:58;11.50;;;6.90;;
11342;SDS011;5726;42.160;24.746;2023-02-28T01:01:24;11.67;;;7.13;;
11342;SDS011;5726;42.160;24.746;2023-02-28T01:03:49;13.10;;;7.47;;
11342;SDS011;5726;42.160;24.746;2023-02-28T01:06:15;13.30;;;7.73;;
11342;SDS011;5726;42.160;24.746;2023-02-28T01:08:40;19.00;;;7.97;;
11342;SDS011;5726;42.160;24.746;2023-02-28T01:11:12;12.33;;;7.30;;
11342;SDS011;5726;42.160;24.746;2023-02-28T01:13:39;14.53;;;7.57;;
11342;SDS011;5726;42.160;24.746;2023-02-28T01:16:06;16.67;;;7.67;;
11342;SDS011;5726;42.160;24.746;2023-02-28T01:18:31;9.33;;;6.40;;
11342;SDS011;5726;42.160;24.746;2023-02-28T01:20:57;12.97;;;6.90;;
11342;SDS011;5726;42.160;24.746;2023-02-28T01:23:23;13.53;;;7.10;;
11342;SDS011;5726;42.160;24.746;2023-02-28T01:25:49;12.10;;;6.53;;
11342;SDS011;5726;42.160;24.746;2023-02-28T01:28:15;16.87;;;6.17;;
11342;SDS011;5726;42.160;24.746;2023-02-28T01:30:41;10.00;;;5.80;;
11342;SDS011;5726;42.160;24.746;2023-02-28T01:33:06;13.33;;;6.23;;
11342;SDS011;5726;42.160;24.746;2023-02-28T01:35:35;13.50;;;5.73;;
11342;SDS011;5726;42.160;24.746;2023-02-28T01:38:01;11.73;;;6.53;;
11342;SDS011;5726;42.160;24.746;2023-02-28T01:40:27;11.10;;;6.27;;
11342;SDS011;5726;42.160;24.746;2023-02-28T01:42:52;14.10;;;6.60;;
11342;SDS011;5726;42.160;24.746;2023-02-28T01:45:20;14.53;;;6.47;;
11342;SDS011;5726;42.160;24.746;2023-02-28T01:47:52;16.17;;;6.30;;
11342;SDS011;5726;42.160;24.746;2023-02-28T01:50:24;11.43;;;6.10;;
11342;SDS011;5726;42.160;24.746;2023-02-28T01:52:51;13.20;;;6.13;;
11342;SDS011;5726;42.160;24.746;2023-02-28T01:55:22;17.83;;;6.13;;
11342;SDS011;5726;42.160;24.746;2023-02-28T01:57:54;14.07;;;6.67;;
11342;SDS011;5726;42.160;24.746;2023-02-28T02:00:23;12.37;;;6.17;;
11342;SDS011;5726;42.160;24.746;2023-02-28T02:02:53;11.90;;;6.07;;
11342;SDS011;5726;42.160;24.746;2023-02-28T02:05:28;15.13;;;5.73;;
11342;SDS011;5726;42.160;24.746;2023-02-28T02:08:03;14.97;;;6.97;;
11342;SDS011;5726;42.160;24.746;2023-02-28T02:24:08;15.80;;;7.93;;
11342;SDS011;5726;42.160;24.746;2023-02-28T02:41:09;15.80;;;9.63;;
11342;SDS011;5726;42.160;24.746;2023-02-28T02:43:40;18.13;;;10.13;;
11342;SDS011;5726;42.160;24.746;2023-02-28T02:46:16;17.73;;;9.33;;
11342;SDS011;5726;42.160;24.746;2023-02-28T02:48:45;21.07;;;9.73;;
11342;SDS011;5726;42.160;24.746;2023-02-28T02:51:16;19.73;;;9.87;;
11342;SDS011;5726;42.160;24.746;2023-02-28T02:54:31;21.40;;;10.63;;
11342;SDS011;5726;42.160;24.746;2023-02-28T02:56:36;21.20;;;9.57;;
11342;SDS011;5726;42.160;24.746;2023-02-28T02:59:07;22.83;;;10.53;;
11342;SDS011;5726;42.160;24.746;2023-02-28T03:01:36;21.03;;;11.63;;
11342;SDS011;5726;42.160;24.746;2023-02-28T03:04:08;16.13;;;9.70;;
11342;SDS011;5726;42.160;24.746;2023-02-28T03:06:37;20.17;;;9.47;;
11342;SDS011;5726;42.160;24.746;2023-02-28T03:09:03;16.77;;;9.20;;
11342;SDS011;5726;42.160;24.746;2023-02-28T03:11:29;14.20;;;8.60;;
11342;SDS011;5726;42.160;24.746;2023-02-28T03:22:14;21.37;;;10.23;;
11342;SDS011;5726;42.160;24.746;2023-02-28T03:27:24;21.90;;;11.80;;
11342;SDS011;5726;42.160;24.746;2023-02-28T03:29:59;21.67;;;11.83;;
11342;SDS011;5726;42.160;24.746;2023-02-28T03:33:16;28.17;;;12.20;;
11342;SDS011;5726;42.160;24.746;2023-02-28T03:35:34;21.13;;;11.03;;
11342;SDS011;5726;42.160;24.746;2023-02-28T03:38:09;21.07;;;11.47;;
11342;SDS011;5726;42.160;24.746;2023-02-28T03:40:40;18.67;;;12.33;;
11342;SDS011;5726;42.160;24.746;2023-02-28T03:43:13;20.27;;;12.07;;
11342;SDS011;5726;42.160;24.746;2023-02-28T03:45:44;25.50;;;12.17;;
11342;SDS011;5726;42.160;24.746;2023-02-28T03:48:20;23.97;;;12.80;;
11342;SDS011;5726;42.160;24.746;2023-02-28T03:50:52;25.43;;;12.57;;
11342;SDS011;5726;42.160;24.746;2023-02-28T03:55:59;23.03;;;12.40;;
11342;SDS011;5726;42.160;24.746;2023-02-28T03:58:41;21.07;;;12.53;;
11342;SDS011;5726;42.160;24.746;2023-02-28T04:04:01;23.40;;;13.47;;
11342;SDS011;5726;42.160;24.746;2023-02-28T04:06:29;28.97;;;14.70;;
11342;SDS011;5726;42.160;24.746;2023-02-28T04:08:57;23.77;;;12.97;;
11342;SDS011;5726;42.160;24.746;2023-02-28T04:11:24;19.10;;;11.57;;
11342;SDS011;5726;42.160;24.746;2023-02-28T04:13:51;22.40;;;12.10;;
11342;SDS011;5726;42.160;24.746;2023-02-28T04:16:16;19.30;;;11.80;;
11342;SDS011;5726;42.160;24.746;2023-02-28T04:18:43;17.27;;;11.57;;
11342;SDS011;5726;42.160;24.746;2023-02-28T04:21:08;17.80;;;11.93;;
11342;SDS011;5726;42.160;24.746;2023-02-28T04:23:35;18.00;;;11.63;;
11342;SDS011;5726;42.160;24.746;2023-02-28T04:26:00;24.53;;;15.30;;
11342;SDS011;5726;42.160;24.746;2023-02-28T04:28:26;16.90;;;10.57;;
11342;SDS011;5726;42.160;24.746;2023-02-28T04:31:09;20.23;;;10.73;;
11342;SDS011;5726;42.160;24.746;2023-02-28T04:33:35;19.37;;;11.13;;
11342;SDS011;5726;42.160;24.746;2023-02-28T04:36:05;23.83;;;11.63;;
11342;SDS011;5726;42.160;24.746;2023-02-28T04:38:37;19.67;;;11.87;;
11342;SDS011;5726;42.160;24.746;2023-02-28T04:41:03;19.43;;;11.40;;
11342;SDS011;5726;42.160;24.746;2023-02-28T04:43:29;18.77;;;10.90;;
11342;SDS011;5726;42.160;24.746;2023-02-28T04:45:57;17.90;;;10.93;;
11342;SDS011;5726;42.160;24.746;2023-02-28T04:48:26;24.40;;;11.43;;
11342;SDS011;5726;42.160;24.746;2023-02-28T04:50:53;22.93;;;10.80;;
11342;SDS011;5726;42.160;24.746;2023-02-28T04:53:19;17.17;;;10.67;;
11342;SDS011;5726;42.160;24.746;2023-02-28T04:55:45;20.00;;;11.20;;
11342;SDS011;5726;42.160;24.746;2023-02-28T04:58:11;19.87;;;10.93;;
11342;SDS011;5726;42.160;24.746;2023-02-28T05:00:38;19.70;;;10.33;;
11342;SDS011;5726;42.160;24.746;2023-02-28T05:03:03;21.20;;;11.23;;
11342;SDS011;5726;42.160;24.746;2023-02-28T05:05:28;19.03;;;11.50;;
11342;SDS011;5726;42.160;24.746;2023-02-28T05:07:54;16.50;;;10.53;;
11342;SDS011;5726;42.160;24.746;2023-02-28T05:10:20;21.53;;;10.83;;
11342;SDS011;5726;42.160;24.746;2023-02-28T05:12:46;17.60;;;9.93;;
11342;SDS011;5726;42.160;24.746;2023-02-28T05:15:13;26.20;;;16.53;;
11342;SDS011;5726;42.160;24.746;2023-02-28T05:17:40;26.70;;;16.17;;
11342;SDS011;5726;42.160;24.746;2023-02-28T05:20:06;16.73;;;10.57;;
11342;SDS011;5726;42.160;24.746;2023-02-28T05:22:32;21.33;;;11.63;;
11342;SDS011;5726;42.160;24.746;2023-02-28T05:24:57;20.60;;;11.20;;
11342;SDS011;5726;42.160;24.746;2023-02-28T05:27:23;18.97;;;11.33;;
11342;SDS011;5726;42.160;24.746;2023-02-28T05:29:49;20.13;;;12.27;;
11342;SDS011;5726;42.160;24.746;2023-02-28T05:32:14;20.97;;;11.50;;
11342;SDS011;5726;42.160;24.746;2023-02-28T05:34:40;20.13;;;12.17;;
11342;SDS011;5726;42.160;24.746;2023-02-28T05:37:07;18.00;;;10.57;;
11342;SDS011;5726;42.160;24.746;2023-02-28T05:39:37;21.23;;;11.07;;
11342;SDS011;5726;42.160;24.746;2023-02-28T05:42:03;21.47;;;12.33;;
11342;SDS011;5726;42.160;24.746;2023-02-28T05:44:29;18.70;;;11.17;;
11342;SDS011;5726;42.160;24.746;2023-02-28T05:46:55;20.53;;;11.10;;
11342;SDS011;5726;42.160;24.746;2023-02-28T05:49:21;18.57;;;10.30;;
11342;SDS011;5726;42.160;24.746;2023-02-28T05:51:46;18.77;;;10.57;;
11342;SDS011;5726;42.160;24.746;2023-02-28T05:54:12;16.47;;;9.63;;
11342;SDS011;5726;42.160;24.746;2023-02-28T05:56:37;16.20;;;10.60;;
11342;SDS011;5726;42.160;24.746;2023-02-28T05:59:05;19.63;;;10.03;;
11342;SDS011;5726;42.160;24.746;2023-02-28T06:01:32;19.27;;;10.93;;
11342;SDS011;5726;42.160;24.746;2023-02-28T06:04:00;16.27;;;9.90;;
11342;SDS011;5726;42.160;24.746;2023-02-28T06:06:26;22.43;;;10.80;;
11342;SDS011;5726;42.160;24.746;2023-02-28T06:08:52;17.07;;;10.37;;
11342;SDS011;5726;42.160;24.746;2023-02-28T06:11:18;76.70;;;41.63;;
11342;SDS011;5726;42.160;24.746;2023-02-28T06:13:45;26.57;;;15.37;;
11342;SDS011;5726;42.160;24.746;2023-02-28T06:16:10;38.10;;;23.90;;
11342;SDS011;5726;42.160;24.746;2023-02-28T06:18:36;20.50;;;12.90;;
11342;SDS011;5726;42.160;24.746;2023-02-28T06:21:02;23.20;;;12.03;;
11342;SDS011;5726;42.160;24.746;2023-02-28T06:23:28;20.07;;;11.70;;
11342;SDS011;5726;42.160;24.746;2023-02-28T06:25:53;17.53;;;11.07;;
11342;SDS011;5726;42.160;24.746;2023-02-28T06:28:22;22.63;;;12.67;;
11342;SDS011;5726;42.160;24.746;2023-02-28T06:30:48;21.33;;;12.47;;
11342;SDS011;5726;42.160;24.746;2023-02-28T06:33:13;28.83;;;13.67;;
11342;SDS011;5726;42.160;24.746;2023-02-28T06:35:38;20.33;;;11.70;;
11342;SDS011;5726;42.160;24.746;2023-02-28T06:38:04;17.03;;;11.77;;
11342;SDS011;5726;42.160;24.746;2023-02-28T06:40:29;22.80;;;12.40;;
11342;SDS011;5726;42.160;24.746;2023-02-28T06:42:59;23.50;;;12.60;;
11342;SDS011;5726;42.160;24.746;2023-02-28T06:45:24;21.60;;;12.37;;
11342;SDS011;5726;42.160;24.746;2023-02-28T06:47:51;23.70;;;12.63;;
11342;SDS011;5726;42.160;24.746;2023-02-28T06:50:17;23.43;;;12.63;;
11342;SDS011;5726;42.160;24.746;2023-02-28T06:52:44;23.97;;;12.20;;
11342;SDS011;5726;42.160;24.746;2023-02-28T06:55:10;23.30;;;11.67;;
11342;SDS011;5726;42.160;24.746;2023-02-28T06:57:36;21.10;;;11.33;;
11342;SDS011;5726;42.160;24.746;2023-02-28T07:00:04;20.57;;;12.30;;
11342;SDS011;5726;42.160;24.746;2023-02-28T07:02:32;19.13;;;11.77;;
11342;SDS011;5726;42.160;24.746;2023-02-28T07:04:59;22.50;;;12.43;;
11342;SDS011;5726;42.160;24.746;2023-02-28T07:07:24;20.00;;;11.50;;
11342;SDS011;5726;42.160;24.746;2023-02-28T07:09:49;23.40;;;12.47;;
11342;SDS011;5726;42.160;24.746;2023-02-28T07:12:15;23.03;;;12.97;;
11342;SDS011;5726;42.160;24.746;2023-02-28T07:14:40;138.77;;;83.57;;
11342;SDS011;5726;42.160;24.746;2023-02-28T07:17:06;44.93;;;21.40;;
11342;SDS011;5726;42.160;24.746;2023-02-28T07:19:33;23.87;;;14.20;;
11342;SDS011;5726;42.160;24.746;2023-02-28T07:21:58;25.77;;;14.13;;
11342;SDS011;5726;42.160;24.746;2023-02-28T07:24:24;27.57;;;14.67;;
11342;SDS011;5726;42.160;24.746;2023-02-28T07:26:53;27.33;;;15.03;;
11342;SDS011;5726;42.160;24.746;2023-02-28T07:29:18;26.07;;;14.73;;
11342;SDS011;5726;42.160;24.746;2023-02-28T07:31:44;24.60;;;14.43;;
11342;SDS011;5726;42.160;24.746;2023-02-28T07:34:09;27.10;;;16.30;;
11342;SDS011;5726;42.160;24.746;2023-02-28T07:36:35;25.83;;;16.03;;
11342;SDS011;5726;42.160;24.746;2023-02-28T07:39:00;36.10;;;19.80;;
11342;SDS011;5726;42.160;24.746;2023-02-28T07:41:25;30.57;;;17.27;;
11342;SDS011;5726;42.160;24.746;2023-02-28T07:43:55;29.07;;;18.47;;
11342;SDS011;5726;42.160;24.746;2023-02-28T07:46:22;30.93;;;15.27;;
11342;SDS011;5726;42.160;24.746;2023-02-28T07:48:48;28.50;;;15.23;;
11342;SDS011;5726;42.160;24.746;2023-02-28T07:51:13;30.70;;;16.43;;
11342;SDS011;5726;42.160;24.746;2023-02-28T07:53:39;24.43;;;15.43;;
11342;SDS011;5726;42.160;24.746;2023-02-28T07:56:04;30.70;;;16.27;;
11342;SDS011;5726;42.160;24.746;2023-02-28T07:58:30;35.07;;;17.10;;
11342;SDS011;5726;42.160;24.746;2023-02-28T08:00:56;28.33;;;16.93;;
11342;SDS011;5726;42.160;24.746;2023-02-28T08:03:23;30.60;;;16.40;;
11342;SDS011;5726;42.160;24.746;2023-02-28T08:05:49;32.13;;;18.87;;
11342;SDS011;5726;42.160;24.746;2023-02-28T08:08:15;29.27;;;17.70;;
11342;SDS011;5726;42.160;24.746;2023-02-28T08:10:41;28.83;;;16.10;;
11342;SDS011;5726;42.160;24.746;2023-02-28T08:13:07;26.57;;;14.73;;
11342;SDS011;5726;42.160;24.746;2023-02-28T08:15:33;28.67;;;16.97;;
11342;SDS011;5726;42.160;24.746;2023-02-28T08:17:58;26.83;;;15.67;;
11342;SDS011;5726;42.160;24.746;2023-02-28T08:20:24;27.27;;;16.80;;
11342;SDS011;5726;42.160;24.746;2023-02-28T08:22:50;30.30;;;17.10;;
11342;SDS011;5726;42.160;24.746;2023-02-28T08:25:16;30.53;;;16.93;;
11342;SDS011;5726;42.160;24.746;2023-02-28T08:27:41;31.47;;;16.63;;
11342;SDS011;5726;42.160;24.746;2023-02-28T08:30:07;28.47;;;17.27;;
11342;SDS011;5726;42.160;24.746;2023-02-28T08:32:35;28.10;;;17.37;;
11342;SDS011;5726;42.160;24.746;2023-02-28T08:35:01;32.40;;;18.30;;
11342;SDS011;5726;42.160;24.746;2023-02-28T08:37:28;27.80;;;16.57;;
11342;SDS011;5726;42.160;24.746;2023-02-28T08:39:53;26.20;;;16.17;;
11342;SDS011;5726;42.160;24.746;2023-02-28T08:42:18;22.57;;;16.00;;
11342;SDS011;5726;42.160;24.746;2023-02-28T08:44:44;32.93;;;17.67;;
11342;SDS011;5726;42.160;24.746;2023-02-28T08:47:09;27.03;;;15.47;;
11342;SDS011;5726;42.160;24.746;2023-02-28T08:49:36;26.10;;;15.70;;
11342;SDS011;5726;42.160;24.746;2023-02-28T08:52:02;25.03;;;15.47;;
11342;SDS011;5726;42.160;24.746;2023-02-28T08:54:28;27.90;;;16.60;;
11342;SDS011;5726;42.160;24.746;2023-02-28T08:56:55;25.87;;;17.00;;
11342;SDS011;5726;42.160;24.746;2023-02-28T08:59:21;26.00;;;16.60;;
11342;SDS011;5726;42.160;24.746;2023-02-28T09:01:46;38.07;;;18.57;;
11342;SDS011;5726;42.160;24.746;2023-02-28T09:04:11;25.87;;;16.47;;
11342;SDS011;5726;42.160;24.746;2023-02-28T09:06:37;29.10;;;17.77;;
11342;SDS011;5726;42.160;24.746;2023-02-28T09:09:03;31.57;;;17.93;;
11342;SDS011;5726;42.160;24.746;2023-02-28T09:11:31;36.70;;;20.00;;
11342;SDS011;5726;42.160;24.746;2023-02-28T09:13:57;40.63;;;24.97;;
11342;SDS011;5726;42.160;24.746;2023-02-28T09:16:24;28.97;;;17.30;;
11342;SDS011;5726;42.160;24.746;2023-02-28T09:18:49;30.63;;;17.73;;
11342;SDS011;5726;42.160;24.746;2023-02-28T09:21:15;34.13;;;21.37;;
11342;SDS011;5726;42.160;24.746;2023-02-28T09:23:43;30.47;;;19.77;;
11342;SDS011;5726;42.160;24.746;2023-02-28T09:26:17;28.93;;;18.33;;
11342;SDS011;5726;42.160;24.746;2023-02-28T09:28:53;33.00;;;19.27;;
11342;SDS011;5726;42.160;24.746;2023-02-28T09:31:23;35.63;;;20.50;;
11342;SDS011;5726;42.160;24.746;2023-02-28T09:33:50;30.10;;;19.63;;
11342;SDS011;5726;42.160;24.746;2023-02-28T09:36:18;29.03;;;19.33;;
11342;SDS011;5726;42.160;24.746;2023-02-28T09:38:44;30.10;;;18.90;;
11342;SDS011;5726;42.160;24.746;2023-02-28T09:41:15;30.00;;;19.43;;
11342;SDS011;5726;42.160;24.746;2023-02-28T09:43:45;37.10;;;21.20;;
11342;SDS011;5726;42.160;24.746;2023-02-28T09:48:46;30.60;;;18.00;;
11342;SDS011;5726;42.160;24.746;2023-02-28T09:54:00;29.47;;;19.27;;
11342;SDS011;5726;42.160;24.746;2023-02-28T10:04:43;35.10;;;20.37;;
11342;SDS011;5726;42.160;24.746;2023-02-28T10:13:17;41.93;;;22.40;;
11342;SDS011;5726;42.160;24.746;2023-02-28T10:15:50;33.13;;;20.93;;
11342;SDS011;5726;42.160;24.746;2023-02-28T10:18:21;36.77;;;21.07;;
11342;SDS011;5726;42.160;24.746;2023-02-28T10:20:52;50.70;;;29.83;;
11342;SDS011;5726;42.160;24.746;2023-02-28T10:23:25;36.47;;;21.93;;
11342;SDS011;5726;42.160;24.746;2023-02-28T10:25:57;33.60;;;20.13;;
11342;SDS011;5726;42.160;24.746;2023-02-28T10:28:25;35.80;;;21.47;;
11342;SDS011;5726;42.160;24.746;2023-02-28T10:30:53;33.30;;;19.97;;
11342;SDS011;5726;42.160;24.746;2023-02-28T10:33:31;38.27;;;22.73;;
11342;SDS011;5726;42.160;24.746;2023-02-28T10:35:59;42.67;;;22.77;;
11342;SDS011;5726;42.160;24.746;2023-02-28T10:38:26;42.03;;;23.27;;
11342;SDS011;5726;42.160;24.746;2023-02-28T10:41:02;40.60;;;23.47;;
11342;SDS011;5726;42.160;24.746;2023-02-28T10:43:30;41.20;;;21.60;;
11342;SDS011;5726;42.160;24.746;2023-02-28T10:45:57;37.13;;;22.47;;
11342;SDS011;5726;42.160;24.746;2023-02-28T10:48:30;37.60;;;22.53;;
11342;SDS011;5726;42.160;24.746;2023-02-28T10:50:59;41.43;;;24.20;;
11342;SDS011;5726;42.160;24.746;2023-02-28T10:53:30;43.20;;;23.23;;
11342;SDS011;5726;42.160;24.746;2023-02-28T10:58:46;43.97;;;25.57;;
11342;SDS011;5726;42.160;24.746;2023-02-28T11:01:48;41.07;;;23.53;;
11342;SDS011;5726;42.160;24.746;2023-02-28T11:04:18;39.53;;;24.17;;
11342;SDS011;5726;42.160;24.746;2023-02-28T11:06:46;41.83;;;25.17;;
11342;SDS011;5726;42.160;24.746;2023-02-28T11:09:30;42.07;;;26.00;;
11342;SDS011;5726;42.160;24.746;2023-02-28T11:11:59;43.60;;;24.47;;
11342;SDS011;5726;42.160;24.746;2023-02-28T11:14:30;40.03;;;24.50;;
11342;SDS011;5726;42.160;24.746;2023-02-28T11:17:02;39.77;;;22.80;;
11342;SDS011;5726;42.160;24.746;2023-02-28T11:19:40;38.30;;;22.00;;
11342;SDS011;5726;42.160;24.746;2023-02-28T11:22:15;40.33;;;22.83;;
11342;SDS011;5726;42.160;24.746;2023-02-28T11:24:44;36.73;;;22.17;;
11342;SDS011;5726;42.160;24.746;2023-02-28T11:29:56;39.20;;;22.73;;
11342;SDS011;5726;42.160;24.746;2023-02-28T11:32:23;35.27;;;22.43;;
11342;SDS011;5726;42.160;24.746;2023-02-28T11:35:14;42.87;;;22.87;;
11342;SDS011;5726;42.160;24.746;2023-02-28T11:37:47;38.87;;;21.90;;
11342;SDS011;5726;42.160;24.746;2023-02-28T11:40:17;35.77;;;23.50;;
11342;SDS011;5726;42.160;24.746;2023-02-28T11:42:54;36.33;;;21.70;;
11342;SDS011;5726;42.160;24.746;2023-02-28T11:55:36;43.20;;;26.37;;
11342;SDS011;5726;42.160;24.746;2023-02-28T12:03:56;36.23;;;22.60;;
11342;SDS011;5726;42.160;24.746;2023-02-28T12:06:43;37.30;;;21.90;;
11342;SDS011;5726;42.160;24.746;2023-02-28T12:09:28;40.80;;;25.13;;
11342;SDS011;5726;42.160;24.746;2023-02-28T12:17:48;62.77;;;39.97;;
11342;SDS011;5726;42.160;24.746;2023-02-28T12:20:38;49.03;;;28.00;;
11342;SDS011;5726;42.160;24.746;2023-02-28T12:28:25;50.67;;;26.00;;
11342;SDS011;5726;42.160;24.746;2023-02-28T12:30:58;43.50;;;25.73;;
11342;SDS011;5726;42.160;24.746;2023-02-28T12:33:38;39.17;;;25.13;;
11342;SDS011;5726;42.160;24.746;2023-02-28T12:36:10;39.77;;;26.23;;
11342;SDS011;5726;42.160;24.746;2023-02-28T12:39:14;46.83;;;28.30;;
11342;SDS011;5726;42.160;24.746;2023-02-28T12:44:54;41.83;;;27.20;;
11342;SDS011;5726;42.160;24.746;2023-02-28T12:47:24;40.13;;;25.20;;
11342;SDS011;5726;42.160;24.746;2023-02-28T12:49:51;47.53;;;25.83;;
11342;SDS011;5726;42.160;24.746;2023-02-28T12:52:22;77.33;;;49.20;;
11342;SDS011;5726;42.160;24.746;2023-02-28T12:54:59;43.17;;;25.83;;
11342;SDS011;5726;42.160;24.746;2023-02-28T12:57:45;44.20;;;27.03;;
11342;SDS011;5726;42.160;24.746;2023-02-28T13:00:28;39.40;;;24.93;;
11342;SDS011;5726;42.160;24.746;2023-02-28T13:03:44;38.17;;;24.13;;
11342;SDS011;5726;42.160;24.746;2023-02-28T13:11:48;36.50;;;24.60;;
11342;SDS011;5726;42.160;24.746;2023-02-28T13:16:55;41.83;;;24.67;;
11342;SDS011;5726;42.160;24.746;2023-02-28T13:19:21;42.87;;;24.30;;
11342;SDS011;5726;42.160;24.746;2023-02-28T13:21:48;41.40;;;25.50;;
11342;SDS011;5726;42.160;24.746;2023-02-28T13:24:36;42.60;;;25.67;;
11342;SDS011;5726;42.160;24.746;2023-02-28T13:27:11;51.73;;;30.37;;
11342;SDS011;5726;42.160;24.746;2023-02-28T13:29:40;46.00;;;26.57;;
11342;SDS011;5726;42.160;24.746;2023-02-28T13:34:41;44.83;;;26.30;;
11342;SDS011;5726;42.160;24.746;2023-02-28T13:37:33;41.53;;;24.97;;
11342;SDS011;5726;42.160;24.746;2023-02-28T13:47:36;39.43;;;25.27;;
11342;SDS011;5726;42.160;24.746;2023-02-28T13:52:55;34.00;;;23.80;;
11342;SDS011;5726;42.160;24.746;2023-02-28T14:01:13;38.17;;;24.63;;
11342;SDS011;5726;42.160;24.746;2023-02-28T14:03:47;39.23;;;24.43;;
11342;SDS011;5726;42.160;24.746;2023-02-28T14:08:52;41.67;;;24.83;;
11342;SDS011;5726;42.160;24.746;2023-02-28T14:11:31;42.50;;;25.10;;
11342;SDS011;5726;42.160;24.746;2023-02-28T14:14:01;46.83;;;25.57;;
11342;SDS011;5726;42.160;24.746;2023-02-28T14:16:39;36.87;;;24.47;;
11342;SDS011;5726;42.160;24.746;2023-02-28T14:19:14;36.77;;;22.90;;
11342;SDS011;5726;42.160;24.746;2023-02-28T14:21:49;38.93;;;25.23;;
11342;SDS011;5726;42.160;24.746;2023-02-28T14:32:41;46.40;;;28.03;;
11342;SDS011;5726;42.160;24.746;2023-02-28T14:37:50;27.83;;;18.83;;
11342;SDS011;5726;42.160;24.746;2023-02-28T14:40:19;29.67;;;17.93;;
11342;SDS011;5726;42.160;24.746;2023-02-28T14:42:57;25.30;;;16.67;;
11342;SDS011;5726;42.160;24.746;2023-02-28T14:45:32;25.73;;;16.97;;
11342;SDS011;5726;42.160;24.746;2023-02-28T14:48:49;26.53;;;16.17;;
11342;SDS011;5726;42.160;24.746;2023-02-28T14:51:19;25.73;;;19.13;;
11342;SDS011;5726;42.160;24.746;2023-02-28T14:53:51;24.33;;;16.80;;
11342;SDS011;5726;42.160;24.746;2023-02-28T14:56:23;24.93;;;16.40;;
11342;SDS011;5726;42.160;24.746;2023-02-28T14:58:52;23.47;;;16.93;;
11342;SDS011;5726;42.160;24.746;2023-02-28T15:01:19;26.37;;;17.50;;
11342;SDS011;5726;42.160;24.746;2023-02-28T15:03:47;26.23;;;17.47;;
11342;SDS011;5726;42.160;24.746;2023-02-28T15:06:21;26.20;;;18.20;;
11342;SDS011;5726;42.160;24.746;2023-02-28T15:08:48;41.63;;;29.30;;
11342;SDS011;5726;42.160;24.746;2023-02-28T15:11:32;27.17;;;18.90;;
11342;SDS011;5726;42.160;24.746;2023-02-28T15:13:58;29.10;;;17.97;;
11342;SDS011;5726;42.160;24.746;2023-02-28T15:16:29;30.33;;;19.73;;
11342;SDS011;5726;42.160;24.746;2023-02-28T15:19:07;30.03;;;19.40;;
11342;SDS011;5726;42.160;24.746;2023-02-28T15:21:38;44.60;;;28.40;;
11342;SDS011;5726;42.160;24.746;2023-02-28T15:24:30;34.87;;;23.77;;
11342;SDS011;5726;42.160;24.746;2023-02-28T15:27:05;25.20;;;16.67;;
11342;SDS011;5726;42.160;24.746;2023-02-28T15:29:41;25.13;;;15.43;;
11342;SDS011;5726;42.160;24.746;2023-02-28T15:32:20;25.33;;;16.53;;
11342;SDS011;5726;42.160;24.746;2023-02-28T15:34:49;24.93;;;15.97;;
11342;SDS011;5726;42.160;24.746;2023-02-28T15:40:04;25.93;;;16.33;;
11342;SDS011;5726;42.160;24.746;2023-02-28T15:42:38;27.40;;;16.30;;
11342;SDS011;5726;42.160;24.746;2023-02-28T15:45:04;26.97;;;16.63;;
11342;SDS011;5726;42.160;24.746;2023-02-28T15:47:29;26.70;;;16.93;;
11342;SDS011;5726;42.160;24.746;2023-02-28T15:50:00;25.43;;;16.27;;
11342;SDS011;5726;42.160;24.746;2023-02-28T15:57:35;25.87;;;17.93;;
11342;SDS011;5726;42.160;24.746;2023-02-28T16:00:03;85.20;;;54.00;;
11342;SDS011;5726;42.160;24.746;2023-02-28T16:02:34;46.93;;;31.47;;
11342;SDS011;5726;42.160;24.746;2023-02-28T16:07:43;32.27;;;20.67;;
11342;SDS011;5726;42.160;24.746;2023-02-28T16:10:09;38.07;;;21.00;;
11342;SDS011;5726;42.160;24.746;2023-02-28T16:12:37;28.37;;;18.90;;
11342;SDS011;5726;42.160;24.746;2023-02-28T16:15:26;31.70;;;18.53;;
11342;SDS011;5726;42.160;24.746;2023-02-28T16:17:52;29.40;;;18.37;;
11342;SDS011;5726;42.160;24.746;2023-02-28T16:20:22;31.43;;;18.93;;
11342;SDS011;5726;42.160;24.746;2023-02-28T16:22:50;29.27;;;18.07;;
11342;SDS011;5726;42.160;24.746;2023-02-28T16:25:17;33.83;;;19.17;;
11342;SDS011;5726;42.160;24.746;2023-02-28T16:27:45;32.33;;;19.13;;
11342;SDS011;5726;42.160;24.746;2023-02-28T16:30:19;31.47;;;18.83;;
11342;SDS011;5726;42.160;24.746;2023-02-28T16:32:47;26.87;;;17.83;;
11342;SDS011;5726;42.160;24.746;2023-02-28T16:35:13;32.43;;;18.10;;
11342;SDS011;5726;42.160;24.746;2023-02-28T16:37:39;36.80;;;21.47;;
11342;SDS011;5726;42.160;24.746;2023-02-28T16:40:05;32.37;;;20.00;;
11342;SDS011;5726;42.160;24.746;2023-02-28T16:42:34;29.00;;;17.43;;
11342;SDS011;5726;42.160;24.746;2023-02-28T16:44:59;31.37;;;18.77;;
11342;SDS011;5726;42.160;24.746;2023-02-28T16:47:25;31.43;;;19.33;;
11342;SDS011;5726;42.160;24.746;2023-02-28T16:49:51;31.17;;;18.83;;
11342;SDS011;5726;42.160;24.746;2023-02-28T16:52:17;29.73;;;18.37;;
11342;SDS011;5726;42.160;24.746;2023-02-28T16:54:42;28.27;;;17.43;;
11342;SDS011;5726;42.160;24.746;2023-02-28T16:57:17;24.80;;;17.03;;
11342;SDS011;5726;42.160;24.746;2023-02-28T16:59:46;28.67;;;16.37;;
11342;SDS011;5726;42.160;24.746;2023-02-28T17:02:18;28.73;;;16.07;;
11342;SDS011;5726;42.160;24.746;2023-02-28T17:04:44;24.33;;;16.80;;
11342;SDS011;5726;42.160;24.746;2023-02-28T17:07:11;27.13;;;16.37;;